Time;durP1;ratioP1;P1;durP2;ratioP2;P2;SDS_P1;SDS_P2;PMS_P1;PMS_P2;Temp;Humidity;BMP_temperature;BMP_pressure;BME280_temperature;BME280_humidity;BME280_pressure;Samples;Min_cycle;Max_cycle;Signal;HPM_P1;HPM_P2
2023/09/14 00:00:53;;;;;;;16.45;10.10;;;;;;;16.88;100.00;97808.91;4994765;28;20435;-77
2023/09/14 00:03:19;;;;;;;15.88;9.75;;;;;;;16.85;100.00;97806.78;4994442;28;20403;-77
2023/09/14 00:05:49;;;;;;;15.85;10.10;;;;;;;16.89;100.00;97810.50;4994281;28;20441;-77
2023/09/14 00:08:16;;;;;;;14.45;10.02;;;;;;;16.92;100.00;97811.78;4994581;28;20410;-77
2023/09/14 00:10:43;;;;;;;14.15;9.45;;;;;;;16.94;100.00;97813.13;4993939;28;20853;-77
2023/09/14 00:13:10;;;;;;;18.08;9.70;;;;;;;16.95;100.00;97817.38;4994505;28;20402;-78
2023/09/14 00:15:39;;;;;;;18.15;11.27;;;;;;;16.86;100.00;97816.41;4994038;28;20409;-78
2023/09/14 00:18:05;;;;;;;17.38;11.00;;;;;;;16.92;100.00;97817.94;4994711;28;20410;-77
2023/09/14 00:20:31;;;;;;;14.93;9.57;;;;;;;16.95;100.00;97811.25;4994635;28;20477;-77
2023/09/14 00:22:59;;;;;;;15.43;10.48;;;;;;;16.92;100.00;97815.25;4994250;28;20428;-77
2023/09/14 00:25:26;;;;;;;15.00;10.07;;;;;;;16.89;100.00;97813.16;4994031;28;20422;-77
2023/09/14 00:27:53;;;;;;;14.50;9.77;;;;;;;16.84;100.00;97807.84;4993446;28;20403;-77
2023/09/14 00:30:20;;;;;;;11.98;9.35;;;;;;;16.80;100.00;97808.69;4993570;28;20407;-77
2023/09/14 00:32:49;;;;;;;16.15;10.20;;;;;;;16.71;100.00;97803.16;4975859;28;20931;-77
2023/09/14 00:35:18;;;;;;;13.77;9.55;;;;;;;16.72;100.00;97810.09;4993540;28;20892;-77
2023/09/14 00:37:45;;;;;;;13.55;9.40;;;;;;;16.66;100.00;97808.56;4993912;28;20970;-77
2023/09/14 00:40:14;;;;;;;11.80;8.38;;;;;;;16.63;100.00;97811.78;4993621;28;20403;-77
2023/09/14 00:42:41;;;;;;;14.15;9.50;;;;;;;16.59;100.00;97808.03;4993628;28;20461;-77
2023/09/14 00:45:09;;;;;;;16.00;9.75;;;;;;;16.53;100.00;97811.84;4993249;28;20465;-77
2023/09/14 00:47:36;;;;;;;13.40;9.63;;;;;;;16.50;100.00;97813.19;4993473;28;20787;-77
2023/09/14 00:50:06;;;;;;;16.20;9.83;;;;;;;16.47;100.00;97818.28;4993041;28;20461;-77
2023/09/14 00:52:34;;;;;;;16.50;10.25;;;;;;;16.44;100.00;97813.50;4993102;28;20399;-77
2023/09/14 00:55:00;;;;;;;14.70;9.97;;;;;;;16.42;100.00;97811.09;4992937;28;20473;-77
2023/09/14 00:57:28;;;;;;;16.92;10.43;;;;;;;16.41;100.00;97814.03;4992026;28;20453;-77
2023/09/14 00:59:54;;;;;;;15.55;10.65;;;;;;;16.37;100.00;97811.16;4993436;28;20414;-77
2023/09/14 01:02:21;;;;;;;16.55;11.35;;;;;;;16.35;100.00;97813.28;4993250;28;20426;-77
2023/09/14 01:04:48;;;;;;;15.77;10.85;;;;;;;16.36;100.00;97822.91;4992650;28;20429;-77
2023/09/14 01:07:15;;;;;;;18.73;11.73;;;;;;;16.34;100.00;97821.56;4993328;28;20410;-77
2023/09/14 01:09:41;;;;;;;21.10;13.60;;;;;;;16.34;100.00;97821.56;4992976;28;20970;-77
2023/09/14 01:12:08;;;;;;;20.35;12.95;;;;;;;16.31;100.00;97820.28;4993116;28;20406;-77
2023/09/14 01:14:43;;;;;;;17.30;11.85;;;;;;;16.31;100.00;97819.47;4992994;28;20745;-77
2023/09/14 01:17:14;;;;;;;25.92;15.07;;;;;;;16.36;100.00;97816.75;4985570;28;20414;-77
2023/09/14 01:19:49;;;;;;;21.50;14.45;;;;;;;16.32;100.00;97813.81;4993064;28;20457;-77
2023/09/14 01:22:31;;;;;;;23.48;13.65;;;;;;;16.27;100.00;97805.84;4975575;28;20406;-77
2023/09/14 01:25:04;;;;;;;20.52;13.73;;;;;;;16.25;100.00;97816.00;4975235;28;20847;-77
2023/09/14 01:27:32;;;;;;;17.55;12.27;;;;;;;16.23;100.00;97812.84;4993076;28;20413;-78
2023/09/14 01:30:00;;;;;;;19.20;12.18;;;;;;;16.19;100.00;97807.25;4992857;28;20414;-77
2023/09/14 01:32:27;;;;;;;19.05;11.85;;;;;;;16.18;100.00;97810.97;4993090;28;20406;-77
2023/09/14 01:34:53;;;;;;;15.77;11.23;;;;;;;16.14;100.00;97812.63;4992280;28;20402;-77
2023/09/14 01:37:21;;;;;;;15.45;10.88;;;;;;;16.13;100.00;97820.91;4992781;28;20399;-77
2023/09/14 01:39:47;;;;;;;14.90;10.20;;;;;;;16.11;100.00;97817.69;4992887;28;20405;-77
2023/09/14 01:42:14;;;;;;;25.13;15.13;;;;;;;16.08;100.00;97812.94;4992490;28;20410;-77
2023/09/14 01:44:42;;;;;;;20.95;13.18;;;;;;;16.06;100.00;97812.41;4992158;28;20781;-77
2023/09/14 01:47:08;;;;;;;17.33;12.00;;;;;;;16.04;100.00;97812.66;4992586;28;20410;-77
2023/09/14 01:49:34;;;;;;;19.33;12.57;;;;;;;16.01;100.00;97815.91;4992406;28;20407;-77
2023/09/14 01:52:00;;;;;;;17.95;12.32;;;;;;;16.00;100.00;97824.97;4992604;28;20416;-78
2023/09/14 01:54:27;;;;;;;21.83;13.93;;;;;;;15.98;100.00;97821.78;4974962;28;20912;-77
2023/09/14 01:56:53;;;;;;;19.25;13.15;;;;;;;15.96;100.00;97820.44;4992335;28;20749;-77
2023/09/14 01:59:19;;;;;;;19.63;13.67;;;;;;;15.95;100.00;97822.31;4992358;28;20500;-77
2023/09/14 02:01:47;;;;;;;20.88;13.50;;;;;;;15.95;100.00;97819.66;4992040;28;20483;-77
2023/09/14 02:04:13;;;;;;;21.60;13.13;;;;;;;15.95;100.00;97822.31;4991915;28;20419;-77
2023/09/14 02:06:39;;;;;;;21.73;13.43;;;;;;;15.95;100.00;97830.34;4992218;28;20406;-77
2023/09/14 02:09:05;;;;;;;18.85;12.73;;;;;;;15.95;100.00;97829.53;4991519;28;20498;-77
2023/09/14 02:11:31;;;;;;;19.80;13.07;;;;;;;15.91;100.00;97828.50;4991895;28;20445;-77
2023/09/14 02:13:58;;;;;;;17.35;12.13;;;;;;;15.93;100.00;97832.50;4991546;28;20410;-77
2023/09/14 02:16:24;;;;;;;16.17;11.60;;;;;;;15.93;100.00;97831.69;4991722;28;20402;-77
2023/09/14 02:18:52;;;;;;;17.75;11.80;;;;;;;15.95;100.00;97833.00;4991757;28;20481;-77
2023/09/14 02:21:18;;;;;;;19.80;12.32;;;;;;;15.92;100.00;97827.44;4991660;28;20417;-77
2023/09/14 02:23:44;;;;;;;18.02;11.57;;;;;;;15.94;100.00;97830.63;4991395;28;20438;-77
2023/09/14 02:26:10;;;;;;;17.67;12.27;;;;;;;15.93;100.00;97829.03;4991395;28;20902;-77
2023/09/14 02:28:36;;;;;;;16.25;11.00;;;;;;;15.92;100.00;97833.56;4991377;28;20473;-77
2023/09/14 02:31:07;;;;;;;14.57;10.20;;;;;;;15.93;100.00;97829.81;4991690;28;20428;-77
2023/09/14 02:33:33;;;;;;;14.63;10.30;;;;;;;15.95;100.00;97834.88;4991272;28;20414;-77
2023/09/14 02:36:00;;;;;;;12.50;9.10;;;;;;;15.98;100.00;97832.47;4991232;28;20469;-77
2023/09/14 02:38:26;;;;;;;13.07;8.80;;;;;;;15.99;100.00;97835.94;4991325;28;20828;-77
2023/09/14 02:40:54;;;;;;;12.57;8.88;;;;;;;16.00;100.00;97832.19;4991608;28;20472;-77
2023/09/14 02:43:20;;;;;;;13.52;9.60;;;;;;;16.02;100.00;97832.69;4991318;28;20473;-77
2023/09/14 02:45:46;;;;;;;13.45;9.52;;;;;;;16.01;100.00;97831.13;4991255;28;20776;-77
2023/09/14 02:48:12;;;;;;;13.48;9.65;;;;;;;16.02;100.00;97843.38;4991377;28;20402;-77
2023/09/14 02:50:38;;;;;;;11.02;7.97;;;;;;;16.05;100.00;97840.16;4991531;28;20498;-77
2023/09/14 02:53:06;;;;;;;12.00;8.40;;;;;;;16.07;100.00;97844.19;4991575;28;20772;-77
2023/09/14 02:55:34;;;;;;;11.60;8.30;;;;;;;16.08;100.00;97831.63;4991018;28;20417;-77
2023/09/14 02:58:01;;;;;;;11.33;7.77;;;;;;;16.09;100.00;97833.19;4991179;28;20410;-77
2023/09/14 03:00:27;;;;;;;10.90;7.80;;;;;;;16.08;100.00;97832.44;4991260;28;20900;-77
2023/09/14 03:02:53;;;;;;;11.23;7.95;;;;;;;16.08;100.00;97836.97;4973585;28;20456;-77
2023/09/14 03:05:19;;;;;;;11.23;8.27;;;;;;;16.03;100.00;97834.31;4991247;28;20422;-77
2023/09/14 03:07:48;;;;;;;10.07;7.55;;;;;;;16.00;100.00;97838.34;4991303;28;20418;-77
2023/09/14 03:10:16;;;;;;;12.23;8.35;;;;;;;15.96;100.00;97845.28;4991218;28;20415;-77
2023/09/14 03:12:42;;;;;;;12.77;8.60;;;;;;;15.91;100.00;97845.31;4991208;28;20409;-77
2023/09/14 03:15:08;;;;;;;11.75;8.25;;;;;;;15.93;100.00;97842.38;4990778;28;20421;-77
2023/09/14 03:17:34;;;;;;;11.45;8.57;;;;;;;15.88;100.00;97841.31;4991250;28;20416;-77
2023/09/14 03:20:01;;;;;;;9.52;7.55;;;;;;;15.87;100.00;97849.59;4991401;28;20529;-77
2023/09/14 03:22:27;;;;;;;9.27;7.20;;;;;;;15.85;100.00;97855.22;4994304;28;20406;-77
2023/09/14 03:24:53;;;;;;;10.32;7.68;;;;;;;15.83;100.00;97853.88;4994305;28;20513;-77
2023/09/14 03:27:20;;;;;;;11.68;8.38;;;;;;;15.81;100.00;97856.81;4994774;28;20425;-77
2023/09/14 03:29:47;;;;;;;12.52;8.68;;;;;;;15.77;100.00;97846.97;4994487;28;20402;-77
2023/09/14 03:32:13;;;;;;;11.30;8.27;;;;;;;15.74;100.00;97853.66;4994803;28;20949;-77
2023/09/14 03:34:39;;;;;;;13.50;8.88;;;;;;;15.69;100.00;97856.34;4994385;28;20407;-77
2023/09/14 03:37:05;;;;;;;14.52;9.13;;;;;;;15.65;100.00;97843.78;4994646;28;20407;-77
2023/09/14 03:39:32;;;;;;;10.85;7.97;;;;;;;15.63;100.00;97852.09;4994923;28;20413;-77
2023/09/14 03:41:58;;;;;;;11.13;8.18;;;;;;;15.61;100.00;97861.44;4994720;28;20410;-77
2023/09/14 03:44:25;;;;;;;11.13;8.25;;;;;;;15.59;100.00;97861.69;4994580;28;20418;-77
2023/09/14 03:46:52;;;;;;;10.57;7.57;;;;;;;15.59;100.00;97863.56;4994898;28;20472;-77
2023/09/14 03:49:18;;;;;;;10.77;7.68;;;;;;;15.59;100.00;97859.03;4994769;28;20494;-77
2023/09/14 03:51:44;;;;;;;9.40;7.65;;;;;;;15.56;100.00;97859.59;4994881;28;20742;-77
2023/09/14 03:54:10;;;;;;;9.53;7.03;;;;;;;15.54;100.00;97850.25;4994277;28;20464;-77
2023/09/14 03:56:37;;;;;;;8.90;6.50;;;;;;;15.50;100.00;97857.97;4994669;28;20501;-77
2023/09/14 03:59:04;;;;;;;9.65;6.90;;;;;;;15.45;100.00;97853.44;4994655;28;20896;-77
2023/09/14 04:01:31;;;;;;;7.20;5.90;;;;;;;15.41;100.00;97841.69;4994405;28;20418;-77
2023/09/14 04:03:58;;;;;;;8.93;6.40;;;;;;;15.37;100.00;97853.19;4993949;28;20776;-77
2023/09/14 04:06:24;;;;;;;8.17;6.63;;;;;;;15.31;100.00;97843.59;4994224;28;20498;-77
2023/09/14 04:08:50;;;;;;;9.75;6.88;;;;;;;15.25;100.00;97850.03;4994278;28;20501;-77
2023/09/14 04:11:17;;;;;;;10.50;6.82;;;;;;;15.20;100.00;97847.34;4993971;28;20411;-77
2023/09/14 04:13:43;;;;;;;8.25;6.55;;;;;;;15.15;100.00;97848.16;4993528;28;20884;-77
2023/09/14 04:16:09;;;;;;;9.10;6.68;;;;;;;15.10;100.00;97850.84;4993438;28;20411;-77
2023/09/14 04:18:38;;;;;;;8.53;6.70;;;;;;;15.05;100.00;97851.63;4993613;28;20478;-77
2023/09/14 04:21:05;;;;;;;7.90;6.13;;;;;;;15.03;100.00;97855.66;4993266;28;20491;-77
2023/09/14 04:23:32;;;;;;;9.40;7.00;;;;;;;15.01;100.00;97865.78;4992578;28;20410;-77
2023/09/14 04:25:59;;;;;;;8.65;6.38;;;;;;;15.00;100.00;97867.63;4992605;28;20522;-77
2023/09/14 04:28:26;;;;;;;8.50;6.30;;;;;;;14.99;100.00;97863.38;4993473;28;20756;-77
2023/09/14 04:30:57;;;;;;;7.67;6.17;;;;;;;14.96;100.00;97863.88;4993554;28;20560;-77
2023/09/14 04:33:24;;;;;;;8.20;6.25;;;;;;;14.93;100.00;97867.13;4993642;28;20411;-77
2023/09/14 04:35:56;;;;;;;9.80;6.68;;;;;;;14.91;100.00;97873.75;4993741;28;20410;-77
2023/09/14 04:38:23;;;;;;;8.82;6.88;;;;;;;14.88;100.00;97874.31;4994244;28;20399;-77
2023/09/14 04:40:49;;;;;;;12.35;8.32;;;;;;;14.82;100.00;97865.50;4993485;28;20833;-77
2023/09/14 04:43:15;;;;;;;10.15;7.43;;;;;;;14.79;100.00;97876.72;4993531;28;20410;-77
2023/09/14 04:45:41;;;;;;;9.90;7.88;;;;;;;14.79;100.00;97878.56;4993186;28;20502;-77
2023/09/14 04:48:08;;;;;;;11.02;8.07;;;;;;;14.78;100.00;97879.63;4993518;28;20425;-77
2023/09/14 04:50:34;;;;;;;10.55;7.78;;;;;;;14.79;100.00;97886.56;4993105;28;20414;-77
2023/09/14 04:53:03;;;;;;;10.18;8.05;;;;;;;14.80;100.00;97888.16;4992784;28;20421;-77
2023/09/14 04:55:29;;;;;;;12.70;8.35;;;;;;;14.80;100.00;97885.50;4992620;28;20445;-77
2023/09/14 04:57:55;;;;;;;10.48;7.15;;;;;;;14.82;100.00;97884.16;4992484;28;20418;-77
2023/09/14 05:00:21;;;;;;;8.30;6.40;;;;;;;14.87;100.00;97886.03;4993068;28;20410;-77
2023/09/14 05:02:47;;;;;;;10.02;6.78;;;;;;;14.92;100.00;97883.38;4992686;28;20416;-77
2023/09/14 05:05:14;;;;;;;10.02;7.20;;;;;;;14.96;100.00;97885.22;4991607;28;20422;-77
2023/09/14 05:07:42;;;;;;;9.70;7.30;;;;;;;14.99;100.00;97886.56;4990995;28;20406;-77
2023/09/14 05:10:10;;;;;;;10.63;7.15;;;;;;;15.01;100.00;97879.91;4992591;28;20414;-77
2023/09/14 05:12:37;;;;;;;10.30;7.53;;;;;;;15.02;100.00;97881.50;4992710;28;20780;-77
2023/09/14 05:15:03;;;;;;;10.35;7.25;;;;;;;15.06;100.00;97890.56;4992499;28;20943;-77
2023/09/14 05:17:30;;;;;;;10.48;7.40;;;;;;;15.12;100.00;97896.69;4975416;28;20445;-77
2023/09/14 05:19:56;;;;;;;11.98;8.05;;;;;;;15.16;100.00;97896.97;4992983;28;20756;-77
2023/09/14 05:22:25;;;;;;;9.57;7.30;;;;;;;15.19;100.00;97893.75;4992470;28;20421;-77
2023/09/14 05:24:51;;;;;;;9.68;6.88;;;;;;;15.23;100.00;97892.16;4992245;28;20916;-77
2023/09/14 05:27:19;;;;;;;8.77;6.50;;;;;;;15.28;100.00;97898.28;4992757;28;20410;-77
2023/09/14 05:29:45;;;;;;;9.52;6.47;;;;;;;15.32;100.00;97891.34;4992655;28;20407;-77
2023/09/14 05:32:11;;;;;;;9.02;6.50;;;;;;;15.37;100.00;97896.66;4994568;28;20415;-78
2023/09/14 05:34:38;;;;;;;10.70;7.85;;;;;;;15.43;100.00;97900.13;4994091;28;20406;-78
2023/09/14 05:37:04;;;;;;;8.97;6.90;;;;;;;15.48;100.00;97908.13;4994195;28;20402;-78
2023/09/14 05:39:30;;;;;;;9.13;6.82;;;;;;;15.56;100.00;97907.63;4994235;28;20417;-78
2023/09/14 05:41:56;;;;;;;8.53;5.90;;;;;;;15.62;100.00;97901.19;4994506;28;20409;-78
2023/09/14 05:44:24;;;;;;;9.02;6.60;;;;;;;15.69;100.00;97899.06;4993190;28;20485;-78
2023/09/14 05:46:51;;;;;;;7.37;5.67;;;;;;;15.76;100.00;97899.56;4976454;28;20897;-78
2023/09/14 05:49:17;;;;;;;7.57;5.30;;;;;;;15.82;100.00;97903.81;4995414;28;20498;-77
2023/09/14 05:51:43;;;;;;;6.90;5.57;;;;;;;15.89;100.00;97911.53;4994130;28;20410;-78
2023/09/14 05:54:09;;;;;;;8.65;6.35;;;;;;;15.94;100.00;97908.84;4992843;28;20906;-78
2023/09/14 05:56:36;;;;;;;8.30;6.00;;;;;;;15.99;100.00;97911.50;4993729;28;20480;-78
2023/09/14 05:59:02;;;;;;;11.18;7.82;;;;;;;16.03;100.00;97907.19;4993570;28;20506;-78
2023/09/14 06:01:29;;;;;;;9.02;7.13;;;;;;;16.07;100.00;97908.28;4976079;28;20974;-78
2023/09/14 06:03:56;;;;;;;13.87;8.97;;;;;;;16.11;100.00;97908.50;4993379;28;20429;-78
2023/09/14 06:06:22;;;;;;;16.23;11.18;;;;;;;16.13;100.00;97901.81;4993781;28;20426;-78
2023/09/14 06:08:48;;;;;;;18.08;11.60;;;;;;;16.14;100.00;97914.13;4993716;28;20805;-78
2023/09/14 06:11:14;;;;;;;15.63;11.43;;;;;;;16.14;100.00;97913.31;4993485;28;20410;-78
2023/09/14 06:13:40;;;;;;;19.90;13.40;;;;;;;16.13;100.00;97920.53;4993749;28;20493;-78
2023/09/14 06:16:07;;;;;;;23.83;14.40;;;;;;;16.12;100.00;97918.13;4993826;28;20429;-78
2023/09/14 06:18:34;;;;;;;23.05;14.77;;;;;;;16.10;100.00;97922.94;4994251;28;20406;-79
2023/09/14 06:21:00;;;;;;;21.30;14.27;;;;;;;16.10;100.00;97922.94;4993443;28;20776;-78
2023/09/14 06:23:27;;;;;;;20.60;14.48;;;;;;;16.11;100.00;97927.19;4993361;28;20410;-78
2023/09/14 06:25:53;;;;;;;20.48;13.82;;;;;;;16.10;100.00;97923.72;4993299;28;20457;-77
2023/09/14 06:28:19;;;;;;;20.15;13.70;;;;;;;16.13;100.00;97927.72;4993606;28;20414;-78
2023/09/14 06:30:45;;;;;;;18.83;13.25;;;;;;;16.12;100.00;97926.13;4993645;28;20406;-78
2023/09/14 06:33:11;;;;;;;16.93;12.43;;;;;;;16.15;100.00;97930.94;4993769;28;20406;-78
2023/09/14 06:35:39;;;;;;;18.77;12.98;;;;;;;16.18;100.00;97933.84;4992582;28;20464;-78
2023/09/14 06:38:05;;;;;;;16.23;11.50;;;;;;;16.21;100.00;97933.31;4991498;28;20764;-78
2023/09/14 06:40:31;;;;;;;16.33;10.70;;;;;;;16.23;100.00;97935.72;4991665;28;20407;-77
2023/09/14 06:42:58;;;;;;;13.57;10.00;;;;;;;16.27;100.00;97936.75;4991586;28;20403;-78
2023/09/14 06:45:24;;;;;;;13.52;9.15;;;;;;;16.30;100.00;97930.88;4991266;28;20911;-77
2023/09/14 06:47:50;;;;;;;13.40;9.38;;;;;;;16.30;100.00;97927.41;4991338;28;20901;-78
2023/09/14 06:50:17;;;;;;;9.93;7.53;;;;;;;16.35;100.00;97927.38;4991081;28;20489;-77
2023/09/14 06:52:44;;;;;;;9.25;7.20;;;;;;;16.38;100.00;97930.31;4990792;28;20889;-77
2023/09/14 06:55:10;;;;;;;13.88;8.35;;;;;;;16.37;100.00;97931.38;4991044;28;20880;-77
2023/09/14 06:57:36;;;;;;;11.00;7.90;;;;;;;16.40;100.00;97928.13;4995013;28;20406;-77
2023/09/14 07:00:13;;;;;;;9.50;7.50;;;;;;;16.43;100.00;97924.94;4994684;28;20421;-77
2023/09/14 07:02:41;;;;;;;11.80;7.75;;;;;;;16.46;100.00;97932.41;4995031;28;20437;-78
2023/09/14 07:05:10;;;;;;;10.15;7.38;;;;;;;16.49;100.00;97925.69;4994954;28;20421;-76
2023/09/14 07:07:36;;;;;;;12.50;7.68;;;;;;;16.51;100.00;97929.69;4994928;28;20552;-76
2023/09/14 07:10:04;;;;;;;8.85;7.13;;;;;;;16.55;100.00;97933.41;4998208;28;20410;-77
2023/09/14 07:12:31;;;;;;;9.43;7.03;;;;;;;16.57;100.00;97933.13;4994662;28;20410;-77
2023/09/14 07:14:57;;;;;;;9.95;7.05;;;;;;;16.56;100.00;97935.00;4994440;28;20410;-77
2023/09/14 07:17:24;;;;;;;10.02;7.28;;;;;;;16.57;100.00;97931.25;4994783;28;20892;-77
2023/09/14 07:19:50;;;;;;;10.52;7.47;;;;;;;16.60;100.00;97941.44;4994563;28;20742;-77
2023/09/14 07:22:18;;;;;;;8.43;6.47;;;;;;;16.67;100.00;97935.00;4994525;28;20425;-77
2023/09/14 07:24:44;;;;;;;9.77;7.67;;;;;;;16.72;100.00;97938.44;4994359;28;20489;-77
2023/09/14 07:27:11;;;;;;;8.88;6.70;;;;;;;16.77;100.00;97942.94;4994555;28;20399;-77
2023/09/14 07:29:37;;;;;;;9.23;6.82;;;;;;;16.82;100.00;97937.56;4993506;28;20410;-77
2023/09/14 07:32:04;;;;;;;10.45;7.47;;;;;;;16.83;100.00;97931.94;4994190;28;20407;-79
2023/09/14 07:34:31;;;;;;;9.98;7.40;;;;;;;16.88;100.00;97939.13;4993718;28;20449;-77
2023/09/14 07:36:57;;;;;;;9.07;6.90;;;;;;;16.93;100.00;97947.09;4994119;28;20501;-77
2023/09/14 07:39:23;;;;;;;9.03;6.77;;;;;;;16.98;100.00;97936.41;4994091;28;20447;-76
2023/09/14 07:41:55;;;;;;;13.45;9.23;;;;;;;16.93;100.00;97937.22;4993828;28;20741;-77
2023/09/14 07:44:22;;;;;;;12.07;8.15;;;;;;;16.98;100.00;97947.09;4993748;28;20398;-78
2023/09/14 07:46:48;;;;;;;12.50;8.63;;;;;;;17.03;100.00;97949.72;4994282;28;20759;-77
2023/09/14 07:49:15;;;;;;;12.73;9.13;;;;;;;17.07;100.00;97950.75;4993726;28;20425;-77
2023/09/14 07:51:41;;;;;;;12.52;8.90;;;;;;;17.09;100.00;97953.94;4993720;28;20445;-76
2023/09/14 07:54:07;;;;;;;13.10;8.90;;;;;;;17.10;100.00;97958.22;4984965;28;20414;-77
2023/09/14 07:56:33;;;;;;;17.88;11.90;;;;;;;17.11;100.00;97959.81;4993624;28;20896;-76
2023/09/14 07:58:59;;;;;;;19.25;12.52;;;;;;;17.11;100.00;97967.84;4976142;28;20418;-76
2023/09/14 08:01:27;;;;;;;19.27;13.23;;;;;;;17.12;100.00;97965.97;4993783;28;20410;-77
2023/09/14 08:03:53;;;;;;;18.30;12.35;;;;;;;17.12;100.00;97965.97;4993343;28;20493;-77
2023/09/14 08:06:21;;;;;;;22.05;14.57;;;;;;;17.01;100.00;97971.38;4975417;28;20425;-76
2023/09/14 08:08:48;;;;;;;24.08;14.80;;;;;;;17.01;100.00;97967.91;4993569;28;20429;-76
2023/09/14 08:11:14;;;;;;;23.92;15.20;;;;;;;16.97;100.00;97969.56;4993766;28;20411;-76
2023/09/14 08:13:40;;;;;;;18.17;13.20;;;;;;;16.97;100.00;97973.03;4993555;28;20409;-76
2023/09/14 08:16:06;;;;;;;18.83;12.77;;;;;;;16.99;100.00;97970.84;4993259;28;20406;-76
2023/09/14 08:18:34;;;;;;;21.13;13.68;;;;;;;17.01;100.00;97979.41;4993282;28;20437;-76
2023/09/14 08:21:01;;;;;;;18.58;12.70;;;;;;;17.05;100.00;97977.00;4994065;28;20410;-75
2023/09/14 08:23:29;;;;;;;21.87;12.87;;;;;;;17.05;100.00;97971.66;4992817;28;20501;-76
2023/09/14 08:25:55;;;;;;;19.02;12.43;;;;;;;17.02;100.00;97969.50;4992760;28;20414;-76
2023/09/14 08:28:21;;;;;;;16.27;11.63;;;;;;;17.10;100.00;97979.63;4993083;28;20417;-76
2023/09/14 08:30:48;;;;;;;15.45;10.40;;;;;;;17.16;100.00;97980.38;4993073;28;20402;-76
2023/09/14 08:33:16;;;;;;;14.70;10.93;;;;;;;17.21;100.00;97983.84;4992859;28;20398;-76
2023/09/14 08:35:45;;;;;;;13.13;9.50;;;;;;;17.27;100.00;97985.41;4992626;28;20406;-76
2023/09/14 08:38:11;;;;;;;14.60;10.25;;;;;;;17.35;100.00;97982.13;4992915;28;20741;-76
2023/09/14 08:40:37;;;;;;;19.13;11.65;;;;;;;17.33;100.00;97986.16;4993002;28;20479;-76
2023/09/14 08:43:11;;;;;;;18.15;10.70;;;;;;;17.32;100.00;97990.69;4992705;28;20405;-76
2023/09/14 08:45:38;;;;;;;15.50;9.57;;;;;;;17.42;100.00;97992.50;4992532;28;20418;-76
2023/09/14 08:48:05;;;;;;;12.18;8.68;;;;;;;17.51;100.00;97992.72;4992650;28;20453;-76
2023/09/14 08:50:33;;;;;;;16.40;10.13;;;;;;;17.56;100.00;97998.81;4992633;28;20410;-76
2023/09/14 08:53:01;;;;;;;10.95;8.48;;;;;;;17.63;100.00;97993.97;4992606;28;20422;-76
2023/09/14 08:55:31;;;;;;;11.38;8.68;;;;;;;17.71;100.00;97998.72;4991950;28;20403;-76
2023/09/14 08:57:58;;;;;;;10.30;7.80;;;;;;;17.80;100.00;97980.16;4992810;28;20391;-76
2023/09/14 09:00:28;;;;;;;9.38;7.10;;;;;;;17.89;100.00;97983.03;4992495;28;20438;-76
2023/09/14 09:02:55;;;;;;;9.20;7.28;;;;;;;17.98;100.00;97994.69;4992858;28;20403;-76
2023/09/14 09:05:24;;;;;;;14.55;7.78;;;;;;;18.02;100.00;97982.34;4992320;28;20418;-76
2023/09/14 09:07:52;;;;;;;11.82;8.15;;;;;;;18.02;100.00;97988.50;4992467;28;20788;-76
2023/09/14 09:10:21;;;;;;;9.55;7.40;;;;;;;18.07;100.00;97985.75;4992362;28;20477;-76
2023/09/14 09:12:49;;;;;;;8.38;6.70;;;;;;;18.14;100.00;97988.88;4992716;28;20410;-76
2023/09/14 09:15:16;;;;;;;7.85;6.13;;;;;;;18.19;100.00;97988.06;4992326;28;20394;-76
2023/09/14 09:17:44;;;;;;;9.43;5.78;;;;;;;18.25;100.00;97992.28;4991710;28;20402;-76
2023/09/14 09:20:16;;;;;;;7.47;6.10;;;;;;;18.30;100.00;97989.53;4991516;28;20460;-76
2023/09/14 09:22:45;;;;;;;11.90;8.02;;;;;;;18.30;100.00;97981.47;4992544;28;20916;-77
2023/09/14 09:25:12;;;;;;;9.32;7.28;;;;;;;18.32;100.00;97986.56;4992996;28;20517;-77
2023/09/14 09:27:40;;;;;;;8.52;6.28;;;;;;;18.35;100.00;97975.25;4993628;28;20423;-77
2023/09/14 09:30:10;;;;;;;9.50;6.38;;;;;;;18.40;100.00;97973.31;4993834;28;20399;-77
2023/09/14 09:32:38;;;;;;;8.90;6.35;;;;;;;18.49;100.00;97978.84;4993821;28;20962;-77
2023/09/14 09:35:18;;;;;;;8.18;6.60;;;;;;;18.53;100.00;97975.28;4993644;28;20413;-77
2023/09/14 09:37:45;;;;;;;10.20;7.15;;;;;;;18.59;100.00;97980.63;4994853;28;20394;-78
2023/09/14 09:40:15;;;;;;;7.93;6.07;;;;;;;18.70;100.00;97977.53;4995379;28;20469;-78
2023/09/14 09:42:43;;;;;;;8.32;5.82;;;;;;;18.81;100.00;97981.66;4995829;28;20398;-78
2023/09/14 09:45:10;;;;;;;9.00;5.93;;;;;;;18.92;100.00;97980.44;4996058;28;20419;-78
2023/09/14 09:47:37;;;;;;;6.72;5.57;;;;;;;19.02;100.00;97984.84;4996365;28;20493;-78
2023/09/14 09:50:06;;;;;;;5.60;5.00;;;;;;;19.15;100.00;97975.28;4995750;28;20425;-78
2023/09/14 09:52:33;;;;;;;6.93;5.30;;;;;;;19.25;100.00;97972.41;4996036;28;20399;-79
2023/09/14 09:55:00;;;;;;;6.20;4.88;;;;;;;19.36;100.00;97965.81;4996891;28;20413;-79
2023/09/14 09:57:30;;;;;;;6.68;5.10;;;;;;;19.48;100.00;97973.41;4996662;28;20418;-78
2023/09/14 09:59:57;;;;;;;6.53;5.22;;;;;;;19.51;100.00;97962.91;4996176;28;20413;-79
2023/09/14 10:02:33;;;;;;;5.30;4.63;;;;;;;19.60;100.00;97966.50;4996175;28;20499;-79
2023/09/14 10:05:00;;;;;;;6.57;4.85;;;;;;;19.75;100.00;97970.81;4995546;28;20549;-79
2023/09/14 10:07:26;;;;;;;6.22;4.80;;;;;;;19.87;100.00;97963.06;4978730;28;20406;-79
2023/09/14 10:09:55;;;;;;;7.13;5.32;;;;;;;19.99;100.00;97965.28;4978998;28;20419;-78
2023/09/14 10:12:26;;;;;;;6.25;4.40;;;;;;;20.06;100.00;97960.31;4996351;28;20457;-79
2023/09/14 10:14:55;;;;;;;9.00;4.65;;;;;;;20.10;100.00;97959.41;4996475;28;20399;-79
2023/09/14 10:17:23;;;;;;;5.13;4.55;;;;;;;20.16;100.00;97953.91;4996476;28;20490;-81
2023/09/14 10:19:50;;;;;;;8.07;4.95;;;;;;;20.17;100.00;97959.00;4996849;28;20456;-80
2023/09/14 10:22:19;;;;;;;6.28;5.00;;;;;;;20.22;100.00;97961.63;4996113;28;20406;-79
2023/09/14 10:24:46;;;;;;;5.72;4.60;;;;;;;20.23;100.00;97954.31;4996404;28;21006;-79
2023/09/14 10:27:15;;;;;;;6.00;4.63;;;;;;;20.33;100.00;97962.19;4996194;28;20460;-79
2023/09/14 10:29:43;;;;;;;5.70;4.60;;;;;;;20.51;100.00;97963.22;4995962;28;20399;-79
2023/09/14 10:32:11;;;;;;;5.33;4.27;;;;;;;20.69;100.00;97960.38;4996102;28;20951;-79
2023/09/14 10:34:39;;;;;;;4.72;3.78;;;;;;;20.83;100.00;97958.44;4996296;28;20757;-79
2023/09/14 10:37:06;;;;;;;4.47;3.65;;;;;;;20.90;100.00;97951.88;4996092;28;20403;-79
2023/09/14 10:39:34;;;;;;;7.90;5.13;;;;;;;20.86;100.00;97939.00;4995976;28;20406;-79
2023/09/14 10:42:00;;;;;;;5.45;4.55;;;;;;;20.77;100.00;97940.81;4995976;28;20895;-79
2023/09/14 10:44:27;;;;;;;6.32;4.50;;;;;;;20.63;100.00;97936.59;4995326;28;20410;-79
2023/09/14 10:46:56;;;;;;;5.03;3.83;;;;;;;20.52;100.00;97941.41;4995591;28;20472;-79
2023/09/14 10:49:24;;;;;;;5.18;3.80;;;;;;;20.55;100.00;97938.09;4995601;28;20403;-79
2023/09/14 10:51:53;;;;;;;6.10;3.90;;;;;;;20.77;100.00;97948.91;4995096;28;20869;-79
2023/09/14 10:54:22;;;;;;;4.97;3.50;;;;;;;21.06;100.00;97935.03;4978198;28;20407;-80
2023/09/14 10:56:53;;;;;;;3.90;3.25;;;;;;;21.42;100.00;97934.22;4995925;28;20406;-79
2023/09/14 10:59:20;;;;;;;5.27;3.40;;;;;;;21.76;100.00;97920.94;4978077;28;20418;-79
2023/09/14 11:01:47;;;;;;;6.47;3.85;;;;;;;22.01;100.00;97914.09;4995424;28;20436;-80
2023/09/14 11:04:15;;;;;;;5.28;3.25;;;;;;;22.19;100.00;97915.72;4996579;28;20893;-80
2023/09/14 11:06:43;;;;;;;4.10;3.15;;;;;;;22.38;100.00;97894.69;4996050;28;20828;-79
2023/09/14 11:09:13;;;;;;;3.05;2.75;;;;;;;22.48;100.00;97882.78;4996748;28;20916;-80
2023/09/14 11:11:41;;;;;;;5.10;3.70;;;;;;;22.56;100.00;97882.00;4996270;28;20406;-79
2023/09/14 11:14:10;;;;;;;4.40;3.55;;;;;;;22.58;100.00;97877.06;4995421;28;20414;-79
2023/09/14 11:16:45;;;;;;;3.38;2.78;;;;;;;22.72;100.00;97877.72;4996421;28;20434;-79